Biotrans — JWPN — position and weather

sailwx.info

Track history (hours):
 
Tides and Currents Weather Stations Pressure Air Temp Water Temp Dewpoint Dewpoint Depression Visibility Wind Speed Wind Dir Waves Ship Positions

Biotrans

Last reported at 2014-Nov-18 12:33 UTC. Time now 2014-Nov-21 20:31 UTC.
Position N 69°43' E 019°03'.

Length 55 m; draft 5.5 m.

Type: Cargo ship. MMSI: 259260000.

Date/timePositionNaut miles runAvg speedWind from/ knotsBaromVisibWave heightAir tempDewpointWater temp
2014-Nov-18 12:33N 69°43' E 019°03'4 3.7
2014-Nov-18 11:33N 69°39' E 018°58'0 0.0
2014-Nov-18 10:33N 69°39' E 018°58'3 2.9
2014-Nov-18 09:33N 69°37' E 018°55'  
2014-Nov-14 23:30N 66°22' E 011°42'8 8.3
2014-Nov-14 22:33N 66°30' E 011°49'10 9.0
2014-Nov-14 21:25N 66°39' E 012°01'  
2014-Nov-11 22:33N 67°44' E 014°31'1010.5
2014-Nov-11 21:33N 67°33' E 014°30'1010.2
2014-Nov-11 20:33N 67°23' E 014°26'6 6.4
2014-Nov-11 19:34N 67°17' E 014°23'0 0.0
2014-Nov-11 18:29N 67°17' E 014°23'0 0.0
2014-Nov-11 17:32N 67°17' E 014°23'0 0.0
2014-Nov-11 16:33N 67°17' E 014°23'7 7.3
2014-Nov-11 15:33N 67°13' E 014°07'51 8.5
2014-Nov-11 09:33N 66°29' E 012°59'9 9.0
2014-Nov-11 08:33N 66°20' E 012°57'22 9.1
2014-Nov-11 06:06N 66°01' E 012°32'160 3.9
2014-Nov-09 13:24N 63°37' E 009°44'1 0.1
2014-Nov-09 07:33N 63°38' E 009°45'8 6.0
2014-Nov-09 06:15N 63°40' E 009°29'  
Track history (hours):
 
Tides and Currents Weather Stations Pressure Air Temp Water Temp Dewpoint Dewpoint Depression Visibility Wind Speed Wind Dir Waves Ship Positions

Biotrans

Last reported at 2014-Nov-18 12:33 UTC. Time now 2014-Nov-21 20:31 UTC.
Position N 69°43' E 019°03'.

Length 55 m; draft 5.5 m.

Type: Cargo ship. MMSI: 259260000.

Date/timePositionNaut miles runAvg speedWind from/ knotsBaromVisibWave heightAir tempDewpointWater temp
2014-Nov-18 12:33N 69°43' E 019°03'4 3.7
2014-Nov-18 11:33N 69°39' E 018°58'0 0.0
2014-Nov-18 10:33N 69°39' E 018°58'3 2.9
2014-Nov-18 09:33N 69°37' E 018°55'  
2014-Nov-14 23:30N 66°22' E 011°42'8 8.3
2014-Nov-14 22:33N 66°30' E 011°49'10 9.0
2014-Nov-14 21:25N 66°39' E 012°01'  
2014-Nov-11 22:33N 67°44' E 014°31'1010.5
2014-Nov-11 21:33N 67°33' E 014°30'1010.2
2014-Nov-11 20:33N 67°23' E 014°26'6 6.4
2014-Nov-11 19:34N 67°17' E 014°23'0 0.0
2014-Nov-11 18:29N 67°17' E 014°23'0 0.0
2014-Nov-11 17:32N 67°17' E 014°23'0 0.0
2014-Nov-11 16:33N 67°17' E 014°23'7 7.3
2014-Nov-11 15:33N 67°13' E 014°07'51 8.5
2014-Nov-11 09:33N 66°29' E 012°59'9 9.0
2014-Nov-11 08:33N 66°20' E 012°57'22 9.1
2014-Nov-11 06:06N 66°01' E 012°32'160 3.9
2014-Nov-09 13:24N 63°37' E 009°44'1 0.1
2014-Nov-09 07:33N 63°38' E 009°45'8 6.0
2014-Nov-09 06:15N 63°40' E 009°29'  

Dump ship's entire track history